sensor_id;sensor_type;location;lat;lon;timestamp;temperature;humidity
13198;DHT22;6664;52.514;13.440;2023-01-26T00:02:21;2.00;79.30
13198;DHT22;6664;52.514;13.440;2023-01-26T00:05:08;1.90;79.50
13198;DHT22;6664;52.514;13.440;2023-01-26T00:07:57;1.90;79.60
13198;DHT22;6664;52.514;13.440;2023-01-26T00:10:42;1.70;79.30
13198;DHT22;6664;52.514;13.440;2023-01-26T00:13:35;1.60;79.70
13198;DHT22;6664;52.514;13.440;2023-01-26T00:16:20;1.60;80.30
13198;DHT22;6664;52.514;13.440;2023-01-26T00:19:06;1.70;80.80
13198;DHT22;6664;52.514;13.440;2023-01-26T00:21:52;1.70;80.80
13198;DHT22;6664;52.514;13.440;2023-01-26T00:24:37;1.70;80.60
13198;DHT22;6664;52.514;13.440;2023-01-26T00:27:23;1.60;81.60
13198;DHT22;6664;52.514;13.440;2023-01-26T00:30:09;1.60;80.50
13198;DHT22;6664;52.514;13.440;2023-01-26T00:32:55;1.50;80.60
13198;DHT22;6664;52.514;13.440;2023-01-26T00:35:41;1.50;81.30
13198;DHT22;6664;52.514;13.440;2023-01-26T00:38:28;1.60;81.20
13198;DHT22;6664;52.514;13.440;2023-01-26T00:41:14;1.50;81.10
13198;DHT22;6664;52.514;13.440;2023-01-26T00:44:20;1.40;81.80
13198;DHT22;6664;52.514;13.440;2023-01-26T00:47:07;1.30;81.30
13198;DHT22;6664;52.514;13.440;2023-01-26T00:49:53;1.20;81.50
13198;DHT22;6664;52.514;13.440;2023-01-26T00:52:39;1.00;81.20
13198;DHT22;6664;52.514;13.440;2023-01-26T00:55:25;0.90;81.40
13198;DHT22;6664;52.514;13.440;2023-01-26T00:58:16;1.00;81.60
13198;DHT22;6664;52.514;13.440;2023-01-26T01:01:02;1.20;81.50
13198;DHT22;6664;52.514;13.440;2023-01-26T01:03:50;1.10;80.70
13198;DHT22;6664;52.514;13.440;2023-01-26T01:06:36;1.20;81.10
13198;DHT22;6664;52.514;13.440;2023-01-26T01:09:22;1.10;81.40
13198;DHT22;6664;52.514;13.440;2023-01-26T01:12:10;1.00;81.60
13198;DHT22;6664;52.514;13.440;2023-01-26T01:14:55;0.90;81.90
13198;DHT22;6664;52.514;13.440;2023-01-26T01:17:41;0.90;82.40
13198;DHT22;6664;52.514;13.440;2023-01-26T01:20:26;1.00;82.60
13198;DHT22;6664;52.514;13.440;2023-01-26T01:23:14;1.10;82.90
13198;DHT22;6664;52.514;13.440;2023-01-26T01:26:00;1.20;83.00
13198;DHT22;6664;52.514;13.440;2023-01-26T01:28:46;1.00;82.30
13198;DHT22;6664;52.514;13.440;2023-01-26T01:31:33;1.10;82.30
13198;DHT22;6664;52.514;13.440;2023-01-26T01:34:19;1.10;82.00
13198;DHT22;6664;52.514;13.440;2023-01-26T01:37:05;1.30;82.00
13198;DHT22;6664;52.514;13.440;2023-01-26T01:39:53;1.20;81.00
13198;DHT22;6664;52.514;13.440;2023-01-26T01:42:46;1.20;80.90
13198;DHT22;6664;52.514;13.440;2023-01-26T01:45:40;1.30;81.10
13198;DHT22;6664;52.514;13.440;2023-01-26T01:48:58;1.30;80.30
13198;DHT22;6664;52.514;13.440;2023-01-26T01:52:02;1.40;80.20
13198;DHT22;6664;52.514;13.440;2023-01-26T01:57:49;1.50;80.20
13198;DHT22;6664;52.514;13.440;2023-01-26T02:00:37;1.50;80.10
13198;DHT22;6664;52.514;13.440;2023-01-26T02:03:22;1.40;79.30
13198;DHT22;6664;52.514;13.440;2023-01-26T02:06:18;1.40;79.70
13198;DHT22;6664;52.514;13.440;2023-01-26T02:09:10;1.30;80.10
13198;DHT22;6664;52.514;13.440;2023-01-26T02:12:22;1.30;80.30
13198;DHT22;6664;52.514;13.440;2023-01-26T02:15:08;1.20;80.60
13198;DHT22;6664;52.514;13.440;2023-01-26T02:17:53;1.20;80.70
13198;DHT22;6664;52.514;13.440;2023-01-26T02:21:02;0.90;81.10
13198;DHT22;6664;52.514;13.440;2023-01-26T02:24:00;1.00;81.50
13198;DHT22;6664;52.514;13.440;2023-01-26T02:26:49;0.90;81.60
13198;DHT22;6664;52.514;13.440;2023-01-26T02:29:38;1.10;82.40
13198;DHT22;6664;52.514;13.440;2023-01-26T02:32:23;1.10;81.60
13198;DHT22;6664;52.514;13.440;2023-01-26T02:35:09;1.10;81.90
13198;DHT22;6664;52.514;13.440;2023-01-26T02:37:55;1.20;81.90
13198;DHT22;6664;52.514;13.440;2023-01-26T02:40:52;1.30;81.10
13198;DHT22;6664;52.514;13.440;2023-01-26T02:43:39;1.40;81.30
13198;DHT22;6664;52.514;13.440;2023-01-26T02:46:26;1.40;81.00
13198;DHT22;6664;52.514;13.440;2023-01-26T02:49:12;1.50;80.90
13198;DHT22;6664;52.514;13.440;2023-01-26T02:52:22;1.30;80.10
13198;DHT22;6664;52.514;13.440;2023-01-26T02:55:09;1.40;80.70
13198;DHT22;6664;52.514;13.440;2023-01-26T02:58:07;1.40;80.30
13198;DHT22;6664;52.514;13.440;2023-01-26T03:00:53;1.40;80.50
13198;DHT22;6664;52.514;13.440;2023-01-26T03:03:39;1.50;80.80
13198;DHT22;6664;52.514;13.440;2023-01-26T03:06:32;1.60;80.70
13198;DHT22;6664;52.514;13.440;2023-01-26T03:09:18;1.50;80.20
13198;DHT22;6664;52.514;13.440;2023-01-26T03:12:07;1.30;80.90
13198;DHT22;6664;52.514;13.440;2023-01-26T03:14:55;1.30;81.50
13198;DHT22;6664;52.514;13.440;2023-01-26T03:18:08;1.40;82.20
13198;DHT22;6664;52.514;13.440;2023-01-26T03:21:15;1.40;81.60
13198;DHT22;6664;52.514;13.440;2023-01-26T03:24:19;1.30;81.90
13198;DHT22;6664;52.514;13.440;2023-01-26T03:27:23;1.00;82.10
13198;DHT22;6664;52.514;13.440;2023-01-26T03:30:16;1.00;83.10
13198;DHT22;6664;52.514;13.440;2023-01-26T03:33:01;1.10;83.50
13198;DHT22;6664;52.514;13.440;2023-01-26T03:35:47;1.30;83.80
13198;DHT22;6664;52.514;13.440;2023-01-26T03:38:32;1.30;83.20
13198;DHT22;6664;52.514;13.440;2023-01-26T03:41:20;1.40;82.50
13198;DHT22;6664;52.514;13.440;2023-01-26T03:44:24;1.30;81.90
13198;DHT22;6664;52.514;13.440;2023-01-26T03:47:29;1.10;82.00
13198;DHT22;6664;52.514;13.440;2023-01-26T03:50:33;1.10;82.80
13198;DHT22;6664;52.514;13.440;2023-01-26T03:53:40;1.00;82.40
13198;DHT22;6664;52.514;13.440;2023-01-26T03:56:47;1.00;82.70
13198;DHT22;6664;52.514;13.440;2023-01-26T03:59:35;1.00;83.00
13198;DHT22;6664;52.514;13.440;2023-01-26T04:02:26;1.00;83.20
13198;DHT22;6664;52.514;13.440;2023-01-26T04:05:32;1.10;83.20
13198;DHT22;6664;52.514;13.440;2023-01-26T04:08:36;1.20;82.70
13198;DHT22;6664;52.514;13.440;2023-01-26T04:11:22;1.20;82.00
13198;DHT22;6664;52.514;13.440;2023-01-26T04:14:12;1.20;81.70
13198;DHT22;6664;52.514;13.440;2023-01-26T04:17:20;1.30;81.50
13198;DHT22;6664;52.514;13.440;2023-01-26T04:20:24;1.40;80.90
13198;DHT22;6664;52.514;13.440;2023-01-26T04:23:28;1.30;80.60
13198;DHT22;6664;52.514;13.440;2023-01-26T04:26:15;1.30;80.80
13198;DHT22;6664;52.514;13.440;2023-01-26T04:29:08;1.20;80.40
13198;DHT22;6664;52.514;13.440;2023-01-26T04:31:54;1.20;80.60
13198;DHT22;6664;52.514;13.440;2023-01-26T04:34:39;1.30;81.00
13198;DHT22;6664;52.514;13.440;2023-01-26T04:37:24;1.40;80.80
13198;DHT22;6664;52.514;13.440;2023-01-26T04:40:10;1.40;79.80
13198;DHT22;6664;52.514;13.440;2023-01-26T04:42:56;1.30;79.10
13198;DHT22;6664;52.514;13.440;2023-01-26T04:45:44;1.30;79.80
13198;DHT22;6664;52.514;13.440;2023-01-26T04:48:32;1.50;79.30
13198;DHT22;6664;52.514;13.440;2023-01-26T04:51:19;1.40;78.60
13198;DHT22;6664;52.514;13.440;2023-01-26T04:54:05;1.50;78.20
13198;DHT22;6664;52.514;13.440;2023-01-26T04:56:51;1.50;78.10
13198;DHT22;6664;52.514;13.440;2023-01-26T04:59:36;1.50;77.80
13198;DHT22;6664;52.514;13.440;2023-01-26T05:02:24;1.40;77.40
13198;DHT22;6664;52.514;13.440;2023-01-26T05:05:15;1.50;77.30
13198;DHT22;6664;52.514;13.440;2023-01-26T05:08:04;1.50;77.00
13198;DHT22;6664;52.514;13.440;2023-01-26T05:10:49;1.50;76.90
13198;DHT22;6664;52.514;13.440;2023-01-26T05:13:37;1.50;76.40
13198;DHT22;6664;52.514;13.440;2023-01-26T05:16:23;1.50;76.00
13198;DHT22;6664;52.514;13.440;2023-01-26T05:19:11;1.50;76.00
13198;DHT22;6664;52.514;13.440;2023-01-26T05:21:57;1.60;76.10
13198;DHT22;6664;52.514;13.440;2023-01-26T05:24:43;1.50;74.90
13198;DHT22;6664;52.514;13.440;2023-01-26T05:27:28;1.40;75.50
13198;DHT22;6664;52.514;13.440;2023-01-26T05:30:16;1.40;75.80
13198;DHT22;6664;52.514;13.440;2023-01-26T05:33:04;1.50;75.50
13198;DHT22;6664;52.514;13.440;2023-01-26T05:35:51;1.50;74.60
13198;DHT22;6664;52.514;13.440;2023-01-26T05:38:37;1.50;74.80
13198;DHT22;6664;52.514;13.440;2023-01-26T05:41:26;1.50;74.60
13198;DHT22;6664;52.514;13.440;2023-01-26T05:44:12;1.60;74.70
13198;DHT22;6664;52.514;13.440;2023-01-26T05:46:57;1.60;74.80
13198;DHT22;6664;52.514;13.440;2023-01-26T05:49:42;1.70;74.80
13198;DHT22;6664;52.514;13.440;2023-01-26T05:52:29;1.60;74.90
13198;DHT22;6664;52.514;13.440;2023-01-26T05:55:17;1.60;75.40
13198;DHT22;6664;52.514;13.440;2023-01-26T05:58:02;1.70;75.40
13198;DHT22;6664;52.514;13.440;2023-01-26T06:00:48;1.70;75.50
13198;DHT22;6664;52.514;13.440;2023-01-26T06:03:36;1.50;75.70
13198;DHT22;6664;52.514;13.440;2023-01-26T06:06:21;1.30;75.80
13198;DHT22;6664;52.514;13.440;2023-01-26T06:09:09;1.20;76.60
13198;DHT22;6664;52.514;13.440;2023-01-26T06:11:55;1.30;77.30
13198;DHT22;6664;52.514;13.440;2023-01-26T06:14:41;1.10;77.70
13198;DHT22;6664;52.514;13.440;2023-01-26T06:17:27;1.00;77.90
13198;DHT22;6664;52.514;13.440;2023-01-26T06:20:12;1.00;78.30
13198;DHT22;6664;52.514;13.440;2023-01-26T06:22:59;1.00;78.60
13198;DHT22;6664;52.514;13.440;2023-01-26T06:25:45;0.90;79.10
13198;DHT22;6664;52.514;13.440;2023-01-26T06:28:31;1.00;79.40
13198;DHT22;6664;52.514;13.440;2023-01-26T06:31:17;1.10;78.80
13198;DHT22;6664;52.514;13.440;2023-01-26T06:34:03;1.00;79.20
13198;DHT22;6664;52.514;13.440;2023-01-26T06:36:49;0.90;79.40
13198;DHT22;6664;52.514;13.440;2023-01-26T06:39:35;1.00;79.60
13198;DHT22;6664;52.514;13.440;2023-01-26T06:42:22;1.00;79.40
13198;DHT22;6664;52.514;13.440;2023-01-26T06:45:08;0.90;78.50
13198;DHT22;6664;52.514;13.440;2023-01-26T06:47:53;1.00;78.50
13198;DHT22;6664;52.514;13.440;2023-01-26T06:50:39;0.90;78.30
13198;DHT22;6664;52.514;13.440;2023-01-26T06:53:37;1.00;77.90
13198;DHT22;6664;52.514;13.440;2023-01-26T06:56:28;0.90;77.80
13198;DHT22;6664;52.514;13.440;2023-01-26T06:59:19;0.80;78.50
13198;DHT22;6664;52.514;13.440;2023-01-26T07:02:13;0.90;78.50
13198;DHT22;6664;52.514;13.440;2023-01-26T07:05:06;0.90;78.70
13198;DHT22;6664;52.514;13.440;2023-01-26T07:07:56;0.90;79.60
13198;DHT22;6664;52.514;13.440;2023-01-26T07:10:46;1.00;79.10
13198;DHT22;6664;52.514;13.440;2023-01-26T07:13:38;1.00;79.40
13198;DHT22;6664;52.514;13.440;2023-01-26T07:16:23;0.80;80.30
13198;DHT22;6664;52.514;13.440;2023-01-26T07:19:09;0.80;80.30
13198;DHT22;6664;52.514;13.440;2023-01-26T07:21:54;0.90;80.30
13198;DHT22;6664;52.514;13.440;2023-01-26T07:24:40;0.80;80.00
13198;DHT22;6664;52.514;13.440;2023-01-26T07:27:25;0.80;80.10
13198;DHT22;6664;52.514;13.440;2023-01-26T07:30:12;0.80;80.00
13198;DHT22;6664;52.514;13.440;2023-01-26T07:33:00;0.80;80.10
13198;DHT22;6664;52.514;13.440;2023-01-26T07:35:46;0.70;80.30
13198;DHT22;6664;52.514;13.440;2023-01-26T07:38:32;0.70;80.40
13198;DHT22;6664;52.514;13.440;2023-01-26T07:41:18;0.60;80.30
13198;DHT22;6664;52.514;13.440;2023-01-26T07:44:08;0.60;80.30
13198;DHT22;6664;52.514;13.440;2023-01-26T07:46:59;0.60;80.30
13198;DHT22;6664;52.514;13.440;2023-01-26T07:49:44;0.60;81.00
13198;DHT22;6664;52.514;13.440;2023-01-26T07:52:31;0.70;81.00
13198;DHT22;6664;52.514;13.440;2023-01-26T07:55:16;0.70;80.30
13198;DHT22;6664;52.514;13.440;2023-01-26T07:58:04;0.60;80.50
13198;DHT22;6664;52.514;13.440;2023-01-26T08:00:49;0.60;80.30
13198;DHT22;6664;52.514;13.440;2023-01-26T08:03:35;0.70;80.10
13198;DHT22;6664;52.514;13.440;2023-01-26T08:06:23;0.70;80.00
13198;DHT22;6664;52.514;13.440;2023-01-26T08:09:10;0.70;79.60
13198;DHT22;6664;52.514;13.440;2023-01-26T08:11:56;0.80;79.30
13198;DHT22;6664;52.514;13.440;2023-01-26T08:14:42;0.70;78.70
13198;DHT22;6664;52.514;13.440;2023-01-26T08:17:31;0.70;79.00
13198;DHT22;6664;52.514;13.440;2023-01-26T08:20:18;0.60;79.00
13198;DHT22;6664;52.514;13.440;2023-01-26T08:23:06;0.70;79.00
13198;DHT22;6664;52.514;13.440;2023-01-26T08:25:51;0.80;79.00
13198;DHT22;6664;52.514;13.440;2023-01-26T08:28:38;0.80;78.50
13198;DHT22;6664;52.514;13.440;2023-01-26T08:31:23;0.80;78.40
13198;DHT22;6664;52.514;13.440;2023-01-26T08:34:10;0.70;78.10
13198;DHT22;6664;52.514;13.440;2023-01-26T08:36:55;0.70;78.60
13198;DHT22;6664;52.514;13.440;2023-01-26T08:39:41;0.70;78.00
13198;DHT22;6664;52.514;13.440;2023-01-26T08:42:29;0.60;77.60
13198;DHT22;6664;52.514;13.440;2023-01-26T08:45:17;0.70;78.20
13198;DHT22;6664;52.514;13.440;2023-01-26T08:48:03;0.80;77.70
13198;DHT22;6664;52.514;13.440;2023-01-26T08:50:58;0.60;77.70
13198;DHT22;6664;52.514;13.440;2023-01-26T08:53:44;0.50;77.70
13198;DHT22;6664;52.514;13.440;2023-01-26T08:56:31;0.50;78.10
13198;DHT22;6664;52.514;13.440;2023-01-26T08:59:16;0.50;78.00
13198;DHT22;6664;52.514;13.440;2023-01-26T09:02:04;0.50;78.00
13198;DHT22;6664;52.514;13.440;2023-01-26T09:04:50;0.50;77.70
13198;DHT22;6664;52.514;13.440;2023-01-26T09:07:38;0.60;78.00
13198;DHT22;6664;52.514;13.440;2023-01-26T09:10:24;0.60;77.40
13198;DHT22;6664;52.514;13.440;2023-01-26T09:13:09;0.70;77.00
13198;DHT22;6664;52.514;13.440;2023-01-26T09:15:55;0.70;77.10
13198;DHT22;6664;52.514;13.440;2023-01-26T09:18:42;0.70;77.00
13198;DHT22;6664;52.514;13.440;2023-01-26T09:21:30;0.60;76.30
13198;DHT22;6664;52.514;13.440;2023-01-26T09:24:17;0.40;76.60
13198;DHT22;6664;52.514;13.440;2023-01-26T09:27:03;0.50;76.70
13198;DHT22;6664;52.514;13.440;2023-01-26T09:29:50;0.30;76.70
13198;DHT22;6664;52.514;13.440;2023-01-26T09:32:36;0.20;77.60
13198;DHT22;6664;52.514;13.440;2023-01-26T09:35:25;0.20;77.30
13198;DHT22;6664;52.514;13.440;2023-01-26T09:38:10;0.40;78.40
13198;DHT22;6664;52.514;13.440;2023-01-26T09:44:09;0.50;76.90
13198;DHT22;6664;52.514;13.440;2023-01-26T09:47:05;0.60;76.40
13198;DHT22;6664;52.514;13.440;2023-01-26T09:50:03;0.50;76.20
13198;DHT22;6664;52.514;13.440;2023-01-26T09:53:05;0.70;76.40
13198;DHT22;6664;52.514;13.440;2023-01-26T09:55:54;0.70;75.30
13198;DHT22;6664;52.514;13.440;2023-01-26T09:58:41;0.80;75.40
13198;DHT22;6664;52.514;13.440;2023-01-26T10:01:42;0.70;74.80
13198;DHT22;6664;52.514;13.440;2023-01-26T10:04:32;0.90;75.30
13198;DHT22;6664;52.514;13.440;2023-01-26T10:07:21;0.90;74.30
13198;DHT22;6664;52.514;13.440;2023-01-26T10:10:08;0.80;74.70
13198;DHT22;6664;52.514;13.440;2023-01-26T10:12:58;0.80;74.70
13198;DHT22;6664;52.514;13.440;2023-01-26T10:15:48;1.00;74.80
13198;DHT22;6664;52.514;13.440;2023-01-26T10:18:41;1.10;74.50
13198;DHT22;6664;52.514;13.440;2023-01-26T10:21:32;1.20;73.20
13198;DHT22;6664;52.514;13.440;2023-01-26T10:24:21;1.00;73.40
13198;DHT22;6664;52.514;13.440;2023-01-26T10:27:11;0.80;74.10
13198;DHT22;6664;52.514;13.440;2023-01-26T10:29:58;0.90;74.30
13198;DHT22;6664;52.514;13.440;2023-01-26T10:32:50;1.10;74.40
13198;DHT22;6664;52.514;13.440;2023-01-26T10:35:37;1.30;74.00
13198;DHT22;6664;52.514;13.440;2023-01-26T10:41:23;1.20;73.30
13198;DHT22;6664;52.514;13.440;2023-01-26T10:49:51;0.80;74.80
13198;DHT22;6664;52.514;13.440;2023-01-26T10:52:58;0.80;75.00
13198;DHT22;6664;52.514;13.440;2023-01-26T10:56:00;0.80;75.40
13198;DHT22;6664;52.514;13.440;2023-01-26T10:58:46;0.90;75.40
13198;DHT22;6664;52.514;13.440;2023-01-26T11:01:51;1.00;75.50
13198;DHT22;6664;52.514;13.440;2023-01-26T11:04:38;1.20;74.90
13198;DHT22;6664;52.514;13.440;2023-01-26T11:07:26;1.20;74.50
13198;DHT22;6664;52.514;13.440;2023-01-26T11:10:32;1.30;74.00
13198;DHT22;6664;52.514;13.440;2023-01-26T11:13:20;1.20;72.80
13198;DHT22;6664;52.514;13.440;2023-01-26T11:16:13;1.10;73.50
13198;DHT22;6664;52.514;13.440;2023-01-26T11:21:52;1.20;73.80
13198;DHT22;6664;52.514;13.440;2023-01-26T11:25:03;1.30;73.50
13198;DHT22;6664;52.514;13.440;2023-01-26T11:34:33;1.40;73.30
13198;DHT22;6664;52.514;13.440;2023-01-26T11:37:47;1.50;72.90
13198;DHT22;6664;52.514;13.440;2023-01-26T11:59:27;1.40;71.40
13198;DHT22;6664;52.514;13.440;2023-01-26T12:02:33;1.10;71.90
13198;DHT22;6664;52.514;13.440;2023-01-26T12:05:24;0.80;72.90
13198;DHT22;6664;52.514;13.440;2023-01-26T12:08:17;0.90;72.90
13198;DHT22;6664;52.514;13.440;2023-01-26T12:11:12;1.00;72.90
13198;DHT22;6664;52.514;13.440;2023-01-26T12:17:19;1.10;72.30
13198;DHT22;6664;52.514;13.440;2023-01-26T12:23:14;1.40;72.00
13198;DHT22;6664;52.514;13.440;2023-01-26T12:26:20;1.30;71.80
13198;DHT22;6664;52.514;13.440;2023-01-26T12:29:29;1.10;71.50
13198;DHT22;6664;52.514;13.440;2023-01-26T12:32:19;1.00;72.00
13198;DHT22;6664;52.514;13.440;2023-01-26T12:35:10;1.10;72.30
13198;DHT22;6664;52.514;13.440;2023-01-26T12:38:17;1.20;71.30
13198;DHT22;6664;52.514;13.440;2023-01-26T12:41:15;1.10;72.60
13198;DHT22;6664;52.514;13.440;2023-01-26T12:44:22;1.10;72.50
13198;DHT22;6664;52.514;13.440;2023-01-26T12:50:20;1.20;72.50
13198;DHT22;6664;52.514;13.440;2023-01-26T12:53:20;1.20;72.60
13198;DHT22;6664;52.514;13.440;2023-01-26T12:56:17;1.40;72.60
13198;DHT22;6664;52.514;13.440;2023-01-26T13:02:28;1.30;72.50
13198;DHT22;6664;52.514;13.440;2023-01-26T13:05:25;1.40;72.00
13198;DHT22;6664;52.514;13.440;2023-01-26T13:14:37;1.50;70.50
13198;DHT22;6664;52.514;13.440;2023-01-26T13:17:53;1.50;69.80
13198;DHT22;6664;52.514;13.440;2023-01-26T13:20:44;1.50;69.50
13198;DHT22;6664;52.514;13.440;2023-01-26T13:23:37;1.60;69.50
13198;DHT22;6664;52.514;13.440;2023-01-26T13:35:11;1.30;69.50
13198;DHT22;6664;52.514;13.440;2023-01-26T13:41:19;1.20;69.90
13198;DHT22;6664;52.514;13.440;2023-01-26T13:44:09;1.20;70.40
13198;DHT22;6664;52.514;13.440;2023-01-26T13:47:04;1.20;70.30
13198;DHT22;6664;52.514;13.440;2023-01-26T13:49:55;1.20;70.40
13198;DHT22;6664;52.514;13.440;2023-01-26T13:52:41;1.10;70.60
13198;DHT22;6664;52.514;13.440;2023-01-26T13:55:30;1.00;71.80
13198;DHT22;6664;52.514;13.440;2023-01-26T13:58:17;1.00;71.50
13198;DHT22;6664;52.514;13.440;2023-01-26T14:01:10;1.10;71.40
13198;DHT22;6664;52.514;13.440;2023-01-26T14:04:07;1.10;71.30
13198;DHT22;6664;52.514;13.440;2023-01-26T14:07:14;1.30;70.90
13198;DHT22;6664;52.514;13.440;2023-01-26T14:10:03;1.40;70.60
13198;DHT22;6664;52.514;13.440;2023-01-26T14:12:52;1.40;70.30
13198;DHT22;6664;52.514;13.440;2023-01-26T14:15:41;1.20;70.30
13198;DHT22;6664;52.514;13.440;2023-01-26T14:18:27;1.20;70.60
13198;DHT22;6664;52.514;13.440;2023-01-26T14:21:17;1.30;70.80
13198;DHT22;6664;52.514;13.440;2023-01-26T14:24:08;1.30;70.40
13198;DHT22;6664;52.514;13.440;2023-01-26T14:26:54;1.10;70.60
13198;DHT22;6664;52.514;13.440;2023-01-26T14:29:40;1.10;71.10
13198;DHT22;6664;52.514;13.440;2023-01-26T14:32:27;1.10;71.00
13198;DHT22;6664;52.514;13.440;2023-01-26T14:35:24;1.10;71.50
13198;DHT22;6664;52.514;13.440;2023-01-26T14:38:15;1.00;71.30
13198;DHT22;6664;52.514;13.440;2023-01-26T14:41:22;0.90;71.70
13198;DHT22;6664;52.514;13.440;2023-01-26T14:44:09;0.90;71.80
13198;DHT22;6664;52.514;13.440;2023-01-26T14:47:12;0.80;71.60
13198;DHT22;6664;52.514;13.440;2023-01-26T14:50:13;0.80;71.80
13198;DHT22;6664;52.514;13.440;2023-01-26T14:53:01;0.80;71.70
13198;DHT22;6664;52.514;13.440;2023-01-26T14:55:49;0.80;72.10
13198;DHT22;6664;52.514;13.440;2023-01-26T14:58:36;0.80;72.10
13198;DHT22;6664;52.514;13.440;2023-01-26T15:01:24;0.70;72.40
13198;DHT22;6664;52.514;13.440;2023-01-26T15:04:35;0.70;72.70
13198;DHT22;6664;52.514;13.440;2023-01-26T15:07:36;0.70;73.40
13198;DHT22;6664;52.514;13.440;2023-01-26T15:10:36;0.80;73.30
13198;DHT22;6664;52.514;13.440;2023-01-26T15:13:24;0.80;73.30
13198;DHT22;6664;52.514;13.440;2023-01-26T15:16:19;0.90;72.90
13198;DHT22;6664;52.514;13.440;2023-01-26T15:19:05;1.00;73.00
13198;DHT22;6664;52.514;13.440;2023-01-26T15:21:52;1.10;72.80
13198;DHT22;6664;52.514;13.440;2023-01-26T15:24:38;1.10;72.60
13198;DHT22;6664;52.514;13.440;2023-01-26T15:27:25;1.00;72.80
13198;DHT22;6664;52.514;13.440;2023-01-26T15:30:20;1.00;72.80
13198;DHT22;6664;52.514;13.440;2023-01-26T15:36:49;0.80;74.10
13198;DHT22;6664;52.514;13.440;2023-01-26T15:39:35;0.70;74.90
13198;DHT22;6664;52.514;13.440;2023-01-26T15:42:22;0.70;75.30
13198;DHT22;6664;52.514;13.440;2023-01-26T15:45:20;0.70;75.30
13198;DHT22;6664;52.514;13.440;2023-01-26T15:48:06;0.60;75.30
13198;DHT22;6664;52.514;13.440;2023-01-26T15:50:52;0.60;75.30
13198;DHT22;6664;52.514;13.440;2023-01-26T15:53:38;0.50;75.80
13198;DHT22;6664;52.514;13.440;2023-01-26T15:56:24;0.50;76.30
13198;DHT22;6664;52.514;13.440;2023-01-26T15:59:11;0.40;76.60
13198;DHT22;6664;52.514;13.440;2023-01-26T16:01:57;0.30;76.80
13198;DHT22;6664;52.514;13.440;2023-01-26T16:04:43;0.30;77.30
13198;DHT22;6664;52.514;13.440;2023-01-26T16:07:29;0.30;77.40
13198;DHT22;6664;52.514;13.440;2023-01-26T16:10:18;0.40;77.60
13198;DHT22;6664;52.514;13.440;2023-01-26T16:13:08;0.40;78.00
13198;DHT22;6664;52.514;13.440;2023-01-26T16:15:55;0.40;77.30
13198;DHT22;6664;52.514;13.440;2023-01-26T16:18:41;0.30;76.70
13198;DHT22;6664;52.514;13.440;2023-01-26T16:21:28;0.30;77.30
13198;DHT22;6664;52.514;13.440;2023-01-26T16:24:16;0.30;77.20
13198;DHT22;6664;52.514;13.440;2023-01-26T16:27:01;0.30;76.80
13198;DHT22;6664;52.514;13.440;2023-01-26T16:29:47;0.30;77.30
13198;DHT22;6664;52.514;13.440;2023-01-26T16:32:37;0.40;77.60
13198;DHT22;6664;52.514;13.440;2023-01-26T16:35:24;0.50;77.00
13198;DHT22;6664;52.514;13.440;2023-01-26T16:38:10;0.50;76.00
13198;DHT22;6664;52.514;13.440;2023-01-26T16:40:58;0.40;76.00
13198;DHT22;6664;52.514;13.440;2023-01-26T16:43:46;0.50;76.10
13198;DHT22;6664;52.514;13.440;2023-01-26T16:46:31;0.60;75.90
13198;DHT22;6664;52.514;13.440;2023-01-26T16:49:17;0.60;75.20
13198;DHT22;6664;52.514;13.440;2023-01-26T16:52:07;0.50;75.10
13198;DHT22;6664;52.514;13.440;2023-01-26T16:54:53;0.50;75.10
13198;DHT22;6664;52.514;13.440;2023-01-26T16:57:39;0.50;74.90
13198;DHT22;6664;52.514;13.440;2023-01-26T17:00:28;0.40;74.90
13198;DHT22;6664;52.514;13.440;2023-01-26T17:03:16;0.50;75.10
13198;DHT22;6664;52.514;13.440;2023-01-26T17:06:01;0.60;75.20
13198;DHT22;6664;52.514;13.440;2023-01-26T17:08:48;0.60;74.30
13198;DHT22;6664;52.514;13.440;2023-01-26T17:11:33;0.50;74.20
13198;DHT22;6664;52.514;13.440;2023-01-26T17:14:19;0.50;74.10
13198;DHT22;6664;52.514;13.440;2023-01-26T17:17:04;0.50;74.10
13198;DHT22;6664;52.514;13.440;2023-01-26T17:19:50;0.50;73.60
13198;DHT22;6664;52.514;13.440;2023-01-26T17:22:38;0.60;73.70
13198;DHT22;6664;52.514;13.440;2023-01-26T17:25:23;0.60;73.40
13198;DHT22;6664;52.514;13.440;2023-01-26T17:28:11;0.60;73.00
13198;DHT22;6664;52.514;13.440;2023-01-26T17:31:04;0.70;73.10
13198;DHT22;6664;52.514;13.440;2023-01-26T17:33:51;0.70;72.40
13198;DHT22;6664;52.514;13.440;2023-01-26T17:36:39;0.80;72.60
13198;DHT22;6664;52.514;13.440;2023-01-26T17:39:25;0.70;72.20
13198;DHT22;6664;52.514;13.440;2023-01-26T17:42:13;0.60;72.40
13198;DHT22;6664;52.514;13.440;2023-01-26T17:44:59;0.70;72.20
13198;DHT22;6664;52.514;13.440;2023-01-26T17:47:45;0.60;71.90
13198;DHT22;6664;52.514;13.440;2023-01-26T17:50:31;0.60;72.20
13198;DHT22;6664;52.514;13.440;2023-01-26T17:53:16;0.60;72.50
13198;DHT22;6664;52.514;13.440;2023-01-26T17:56:01;0.60;72.40
13198;DHT22;6664;52.514;13.440;2023-01-26T17:58:48;0.60;72.70
13198;DHT22;6664;52.514;13.440;2023-01-26T18:01:34;0.60;72.70
13198;DHT22;6664;52.514;13.440;2023-01-26T18:04:20;0.60;72.90
13198;DHT22;6664;52.514;13.440;2023-01-26T18:07:06;0.50;73.10
13198;DHT22;6664;52.514;13.440;2023-01-26T18:09:54;0.60;73.30
13198;DHT22;6664;52.514;13.440;2023-01-26T18:12:40;0.50;73.40
13198;DHT22;6664;52.514;13.440;2023-01-26T18:15:25;0.50;73.80
13198;DHT22;6664;52.514;13.440;2023-01-26T18:18:13;0.60;73.90
13198;DHT22;6664;52.514;13.440;2023-01-26T18:21:09;0.70;73.60
13198;DHT22;6664;52.514;13.440;2023-01-26T18:23:58;0.60;73.60
13198;DHT22;6664;52.514;13.440;2023-01-26T18:26:45;0.50;73.90
13198;DHT22;6664;52.514;13.440;2023-01-26T18:29:30;0.50;74.20
13198;DHT22;6664;52.514;13.440;2023-01-26T18:32:16;0.60;74.40
13198;DHT22;6664;52.514;13.440;2023-01-26T18:35:07;0.70;73.90
13198;DHT22;6664;52.514;13.440;2023-01-26T18:37:54;0.70;74.10
13198;DHT22;6664;52.514;13.440;2023-01-26T18:40:39;0.50;74.60
13198;DHT22;6664;52.514;13.440;2023-01-26T18:43:28;0.60;74.80
13198;DHT22;6664;52.514;13.440;2023-01-26T18:46:17;0.60;74.30
13198;DHT22;6664;52.514;13.440;2023-01-26T18:49:02;0.50;75.00
13198;DHT22;6664;52.514;13.440;2023-01-26T18:51:48;0.50;75.10
13198;DHT22;6664;52.514;13.440;2023-01-26T18:54:36;0.60;75.20
13198;DHT22;6664;52.514;13.440;2023-01-26T18:57:22;0.60;75.10
13198;DHT22;6664;52.514;13.440;2023-01-26T19:00:10;0.60;75.10
13198;DHT22;6664;52.514;13.440;2023-01-26T19:02:57;0.60;75.20
13198;DHT22;6664;52.514;13.440;2023-01-26T19:05:43;0.60;75.10
13198;DHT22;6664;52.514;13.440;2023-01-26T19:08:29;0.60;75.20
13198;DHT22;6664;52.514;13.440;2023-01-26T19:11:15;0.60;75.20
13198;DHT22;6664;52.514;13.440;2023-01-26T19:14:07;0.50;75.20
13198;DHT22;6664;52.514;13.440;2023-01-26T19:16:53;0.60;75.70
13198;DHT22;6664;52.514;13.440;2023-01-26T19:19:39;0.60;75.60
13198;DHT22;6664;52.514;13.440;2023-01-26T19:22:25;0.70;75.90
13198;DHT22;6664;52.514;13.440;2023-01-26T19:25:11;0.60;76.30
13198;DHT22;6664;52.514;13.440;2023-01-26T19:27:58;0.50;76.40